sensor_id;sensor_type;location;lat;lon;timestamp;pressure;altitude;pressure_sealevel;temperature;humidity
18988;BME280;5494;51.796;10.952;2022-08-21T00:00:55;99087.34;;;19.21;88.42
18988;BME280;5494;51.796;10.952;2022-08-21T00:03:23;99088.31;;;18.99;89.28
18988;BME280;5494;51.796;10.952;2022-08-21T00:05:53;99089.84;;;19.02;89.33
18988;BME280;5494;51.796;10.952;2022-08-21T00:08:21;99090.84;;;19.01;89.08
18988;BME280;5494;51.796;10.952;2022-08-21T00:10:50;99099.50;;;18.92;88.91
18988;BME280;5494;51.796;10.952;2022-08-21T00:13:20;99095.63;;;18.96;88.68
18988;BME280;5494;51.796;10.952;2022-08-21T00:15:50;99087.91;;;19.04;87.95
18988;BME280;5494;51.796;10.952;2022-08-21T00:18:19;99092.00;;;19.08;87.17
18988;BME280;5494;51.796;10.952;2022-08-21T00:20:47;99094.53;;;18.98;87.09
18988;BME280;5494;51.796;10.952;2022-08-21T00:23:18;99095.63;;;18.96;87.27
18988;BME280;5494;51.796;10.952;2022-08-21T00:25:47;99098.25;;;18.96;87.18
18988;BME280;5494;51.796;10.952;2022-08-21T00:28:17;99100.34;;;18.92;87.25
18988;BME280;5494;51.796;10.952;2022-08-21T00:30:45;99095.56;;;18.86;87.01
18988;BME280;5494;51.796;10.952;2022-08-21T00:33:14;99092.41;;;18.71;88.07
18988;BME280;5494;51.796;10.952;2022-08-21T00:35:43;99093.59;;;18.67;88.47
18988;BME280;5494;51.796;10.952;2022-08-21T00:38:12;99091.25;;;18.53;88.33
18988;BME280;5494;51.796;10.952;2022-08-21T00:40:47;99087.78;;;18.53;88.51
18988;BME280;5494;51.796;10.952;2022-08-21T00:43:22;99085.00;;;18.54;88.50
18988;BME280;5494;51.796;10.952;2022-08-21T00:45:51;99091.88;;;18.45;89.13
18988;BME280;5494;51.796;10.952;2022-08-21T00:48:21;99091.53;;;18.39;89.47
18988;BME280;5494;51.796;10.952;2022-08-21T00:50:55;99091.78;;;18.36;89.41
18988;BME280;5494;51.796;10.952;2022-08-21T00:53:25;99093.19;;;18.40;88.77
18988;BME280;5494;51.796;10.952;2022-08-21T00:55:57;99086.00;;;18.42;87.99
18988;BME280;5494;51.796;10.952;2022-08-21T00:58:29;99079.91;;;18.41;88.13
18988;BME280;5494;51.796;10.952;2022-08-21T01:01:01;99086.28;;;18.39;87.27
18988;BME280;5494;51.796;10.952;2022-08-21T01:03:35;99089.53;;;18.31;87.87
18988;BME280;5494;51.796;10.952;2022-08-21T01:06:11;99084.16;;;18.22;88.01
18988;BME280;5494;51.796;10.952;2022-08-21T01:08:40;99077.97;;;18.12;88.23
18988;BME280;5494;51.796;10.952;2022-08-21T01:11:15;99085.38;;;18.06;88.63
18988;BME280;5494;51.796;10.952;2022-08-21T01:13:45;99082.50;;;17.98;88.73
18988;BME280;5494;51.796;10.952;2022-08-21T01:16:19;99083.25;;;17.89;88.70
18988;BME280;5494;51.796;10.952;2022-08-21T01:18:50;99077.75;;;17.81;88.51
18988;BME280;5494;51.796;10.952;2022-08-21T01:21:23;99077.63;;;17.71;88.52
18988;BME280;5494;51.796;10.952;2022-08-21T01:23:56;99079.91;;;17.65;88.01
18988;BME280;5494;51.796;10.952;2022-08-21T01:26:30;99075.09;;;17.59;87.76
18988;BME280;5494;51.796;10.952;2022-08-21T01:29:07;99075.56;;;17.53;86.95
18988;BME280;5494;51.796;10.952;2022-08-21T01:31:38;99076.06;;;17.47;86.49
18988;BME280;5494;51.796;10.952;2022-08-21T01:34:08;99070.78;;;17.47;85.97
18988;BME280;5494;51.796;10.952;2022-08-21T01:36:39;99080.69;;;17.43;85.61
18988;BME280;5494;51.796;10.952;2022-08-21T01:39:07;99077.38;;;17.41;85.37
18988;BME280;5494;51.796;10.952;2022-08-21T01:41:36;99075.81;;;17.39;85.36
18988;BME280;5494;51.796;10.952;2022-08-21T01:44:05;99071.97;;;17.31;84.93
18988;BME280;5494;51.796;10.952;2022-08-21T01:46:34;99074.84;;;17.28;84.42
18988;BME280;5494;51.796;10.952;2022-08-21T01:49:03;99074.34;;;17.23;84.38
18988;BME280;5494;51.796;10.952;2022-08-21T01:51:32;99078.38;;;17.16;83.80
18988;BME280;5494;51.796;10.952;2022-08-21T01:54:02;99074.56;;;17.09;83.58
18988;BME280;5494;51.796;10.952;2022-08-21T01:56:37;99076.09;;;17.01;83.44
18988;BME280;5494;51.796;10.952;2022-08-21T01:59:07;99087.66;;;16.98;83.33
18988;BME280;5494;51.796;10.952;2022-08-21T02:01:36;99076.69;;;16.93;83.09
18988;BME280;5494;51.796;10.952;2022-08-21T02:04:08;99071.66;;;16.90;82.91
18988;BME280;5494;51.796;10.952;2022-08-21T02:06:38;99066.41;;;16.90;82.56
18988;BME280;5494;51.796;10.952;2022-08-21T02:09:10;99067.59;;;16.97;81.76
18988;BME280;5494;51.796;10.952;2022-08-21T02:11:41;99070.22;;;16.97;81.77
18988;BME280;5494;51.796;10.952;2022-08-21T02:14:13;99066.41;;;17.01;81.01
18988;BME280;5494;51.796;10.952;2022-08-21T02:16:58;99072.84;;;16.97;80.75
18988;BME280;5494;51.796;10.952;2022-08-21T02:19:37;99068.22;;;17.01;80.15
18988;BME280;5494;51.796;10.952;2022-08-21T02:22:08;99071.28;;;16.94;79.67
18988;BME280;5494;51.796;10.952;2022-08-21T02:24:39;99074.75;;;16.95;79.60
18988;BME280;5494;51.796;10.952;2022-08-21T02:27:22;99066.41;;;16.90;79.74
18988;BME280;5494;51.796;10.952;2022-08-21T02:29:56;99065.06;;;16.84;79.41
18988;BME280;5494;51.796;10.952;2022-08-21T02:32:25;99069.94;;;16.78;79.58
18988;BME280;5494;51.796;10.952;2022-08-21T02:34:53;99064.06;;;16.74;79.01
18988;BME280;5494;51.796;10.952;2022-08-21T02:37:22;99064.63;;;16.67;79.03
18988;BME280;5494;51.796;10.952;2022-08-21T02:39:52;99062.47;;;16.61;79.21
18988;BME280;5494;51.796;10.952;2022-08-21T02:42:21;99054.59;;;16.61;78.80
18988;BME280;5494;51.796;10.952;2022-08-21T02:44:49;99054.81;;;16.58;78.55
18988;BME280;5494;51.796;10.952;2022-08-21T02:47:18;99053.59;;;16.50;78.85
18988;BME280;5494;51.796;10.952;2022-08-21T02:49:47;99061.19;;;16.42;78.99
18988;BME280;5494;51.796;10.952;2022-08-21T02:52:15;99048.16;;;16.41;79.21
18988;BME280;5494;51.796;10.952;2022-08-21T02:54:43;99057.53;;;16.32;79.85
18988;BME280;5494;51.796;10.952;2022-08-21T02:57:13;99054.22;;;16.30;79.44
18988;BME280;5494;51.796;10.952;2022-08-21T02:59:42;99054.75;;;16.23;79.62
18988;BME280;5494;51.796;10.952;2022-08-21T03:02:11;99055.81;;;16.20;79.13
18988;BME280;5494;51.796;10.952;2022-08-21T03:04:40;99056.16;;;16.15;79.07
18988;BME280;5494;51.796;10.952;2022-08-21T03:07:12;99050.91;;;16.15;79.03
18988;BME280;5494;51.796;10.952;2022-08-21T03:09:42;99051.00;;;16.14;78.52
18988;BME280;5494;51.796;10.952;2022-08-21T03:12:23;99057.28;;;16.24;78.40
18988;BME280;5494;51.796;10.952;2022-08-21T03:14:57;99054.31;;;16.29;78.17
18988;BME280;5494;51.796;10.952;2022-08-21T03:17:25;99052.41;;;16.31;78.11
18988;BME280;5494;51.796;10.952;2022-08-21T03:19:57;99055.66;;;16.34;78.02
18988;BME280;5494;51.796;10.952;2022-08-21T03:22:27;99056.38;;;16.36;77.35
18988;BME280;5494;51.796;10.952;2022-08-21T03:24:57;99048.50;;;16.36;77.35
18988;BME280;5494;51.796;10.952;2022-08-21T03:27:28;99045.78;;;16.38;77.13
18988;BME280;5494;51.796;10.952;2022-08-21T03:29:57;99045.53;;;16.41;76.94
18988;BME280;5494;51.796;10.952;2022-08-21T03:32:27;99045.78;;;16.38;77.19
18988;BME280;5494;51.796;10.952;2022-08-21T03:34:56;99048.25;;;16.39;76.95
18988;BME280;5494;51.796;10.952;2022-08-21T03:37:25;99046.22;;;16.32;77.55
18988;BME280;5494;51.796;10.952;2022-08-21T03:39:53;99042.25;;;16.26;77.95
18988;BME280;5494;51.796;10.952;2022-08-21T03:42:22;99042.09;;;16.17;77.95
18988;BME280;5494;51.796;10.952;2022-08-21T03:44:52;99041.47;;;16.13;77.53
18988;BME280;5494;51.796;10.952;2022-08-21T03:47:20;99038.56;;;16.05;77.78
18988;BME280;5494;51.796;10.952;2022-08-21T03:49:49;99042.34;;;16.01;77.63
18988;BME280;5494;51.796;10.952;2022-08-21T03:52:18;99046.16;;;15.97;77.52
18988;BME280;5494;51.796;10.952;2022-08-21T03:54:46;99045.63;;;15.92;77.82
18988;BME280;5494;51.796;10.952;2022-08-21T03:57:15;99044.19;;;15.88;77.95
18988;BME280;5494;51.796;10.952;2022-08-21T03:59:44;99048.19;;;15.81;78.17
18988;BME280;5494;51.796;10.952;2022-08-21T04:02:18;99048.19;;;15.81;77.81
18988;BME280;5494;51.796;10.952;2022-08-21T04:04:48;99048.72;;;15.73;77.71
18988;BME280;5494;51.796;10.952;2022-08-21T04:07:17;99048.94;;;15.70;78.02
18988;BME280;5494;51.796;10.952;2022-08-21T04:09:46;99051.44;;;15.71;77.89
18988;BME280;5494;51.796;10.952;2022-08-21T04:12:14;99051.78;;;15.67;77.29
18988;BME280;5494;51.796;10.952;2022-08-21T04:14:42;99054.00;;;15.60;77.86
18988;BME280;5494;51.796;10.952;2022-08-21T04:17:12;99056.63;;;15.60;77.61
18988;BME280;5494;51.796;10.952;2022-08-21T04:19:41;99061.34;;;15.55;78.22
18988;BME280;5494;51.796;10.952;2022-08-21T04:22:10;99062.28;;;15.54;78.05
18988;BME280;5494;51.796;10.952;2022-08-21T04:24:38;99063.00;;;15.56;77.66
18988;BME280;5494;51.796;10.952;2022-08-21T04:27:07;99067.28;;;15.57;77.51
18988;BME280;5494;51.796;10.952;2022-08-21T04:29:35;99065.63;;;15.56;77.34
18988;BME280;5494;51.796;10.952;2022-08-21T04:32:06;99070.47;;;15.62;77.95
18988;BME280;5494;51.796;10.952;2022-08-21T04:34:36;99071.06;;;15.66;77.96
18988;BME280;5494;51.796;10.952;2022-08-21T04:37:04;99072.00;;;15.65;78.24
18988;BME280;5494;51.796;10.952;2022-08-21T04:39:33;99074.00;;;15.74;77.58
18988;BME280;5494;51.796;10.952;2022-08-21T04:42:02;99077.97;;;15.80;77.55
18988;BME280;5494;51.796;10.952;2022-08-21T04:44:33;99083.94;;;15.82;78.23
18988;BME280;5494;51.796;10.952;2022-08-21T04:47:02;99085.91;;;15.91;77.92
18988;BME280;5494;51.796;10.952;2022-08-21T04:49:30;99078.34;;;15.99;78.17
18988;BME280;5494;51.796;10.952;2022-08-21T04:52:01;99079.75;;;16.15;78.46
18988;BME280;5494;51.796;10.952;2022-08-21T04:54:29;99073.84;;;16.25;78.40
18988;BME280;5494;51.796;10.952;2022-08-21T04:57:04;99081.69;;;16.37;78.49
18988;BME280;5494;51.796;10.952;2022-08-21T04:59:38;99088.16;;;16.44;77.57
18988;BME280;5494;51.796;10.952;2022-08-21T05:02:09;99082.44;;;16.50;77.37
18988;BME280;5494;51.796;10.952;2022-08-21T05:04:45;99075.38;;;16.64;77.55
18988;BME280;5494;51.796;10.952;2022-08-21T05:07:22;99084.75;;;16.79;76.48
18988;BME280;5494;51.796;10.952;2022-08-21T05:10:09;99086.94;;;16.96;75.52
18988;BME280;5494;51.796;10.952;2022-08-21T05:12:41;99087.94;;;17.06;75.27
18988;BME280;5494;51.796;10.952;2022-08-21T05:15:11;99086.63;;;17.23;76.12
18988;BME280;5494;51.796;10.952;2022-08-21T05:17:40;99100.75;;;17.33;76.70
18988;BME280;5494;51.796;10.952;2022-08-21T05:20:12;99095.63;;;17.43;75.59
18988;BME280;5494;51.796;10.952;2022-08-21T05:22:42;99103.53;;;17.54;75.38
18988;BME280;5494;51.796;10.952;2022-08-21T05:25:11;99102.38;;;17.69;74.41
18988;BME280;5494;51.796;10.952;2022-08-21T05:27:39;99100.59;;;17.81;72.31
18988;BME280;5494;51.796;10.952;2022-08-21T05:30:10;99106.91;;;17.78;71.81
18988;BME280;5494;51.796;10.952;2022-08-21T05:32:39;99099.03;;;17.89;72.36
18988;BME280;5494;51.796;10.952;2022-08-21T05:35:08;99109.53;;;18.12;72.58
18988;BME280;5494;51.796;10.952;2022-08-21T05:37:36;99099.28;;;18.52;71.90
18988;BME280;5494;51.796;10.952;2022-08-21T05:40:08;99103.41;;;18.97;69.92
18988;BME280;5494;51.796;10.952;2022-08-21T05:42:50;99094.28;;;19.43;67.63
18988;BME280;5494;51.796;10.952;2022-08-21T05:45:22;99093.09;;;19.87;64.96
18988;BME280;5494;51.796;10.952;2022-08-21T05:48:13;99098.88;;;20.51;62.59
18988;BME280;5494;51.796;10.952;2022-08-21T05:50:46;99099.03;;;20.88;61.49
18988;BME280;5494;51.796;10.952;2022-08-21T05:53:18;99104.56;;;21.14;61.23
18988;BME280;5494;51.796;10.952;2022-08-21T05:55:50;99099.09;;;21.44;59.54
18988;BME280;5494;51.796;10.952;2022-08-21T05:58:21;99099.56;;;21.67;59.09
18988;BME280;5494;51.796;10.952;2022-08-21T06:00:51;99097.25;;;21.91;57.36
18988;BME280;5494;51.796;10.952;2022-08-21T06:03:23;99097.53;;;22.43;55.77
18988;BME280;5494;51.796;10.952;2022-08-21T06:05:53;99102.13;;;22.86;54.55
18988;BME280;5494;51.796;10.952;2022-08-21T06:08:24;99102.59;;;23.25;52.62
18988;BME280;5494;51.796;10.952;2022-08-21T06:10:57;99104.09;;;23.02;53.80
18988;BME280;5494;51.796;10.952;2022-08-21T06:13:26;99100.34;;;23.12;53.20
18988;BME280;5494;51.796;10.952;2022-08-21T06:16:04;99094.44;;;23.18;54.13
18988;BME280;5494;51.796;10.952;2022-08-21T06:18:34;99092.09;;;24.01;54.05
18988;BME280;5494;51.796;10.952;2022-08-21T06:21:04;99091.91;;;23.94;52.93
18988;BME280;5494;51.796;10.952;2022-08-21T06:23:33;99099.28;;;23.23;55.58
18988;BME280;5494;51.796;10.952;2022-08-21T06:26:06;99093.78;;;24.02;53.25
18988;BME280;5494;51.796;10.952;2022-08-21T06:28:36;99093.66;;;24.86;49.91
18988;BME280;5494;51.796;10.952;2022-08-21T06:31:12;99091.31;;;25.48;47.07
18988;BME280;5494;51.796;10.952;2022-08-21T06:33:41;99085.19;;;25.95;45.09
18988;BME280;5494;51.796;10.952;2022-08-21T06:36:10;99088.53;;;26.36;42.45
18988;BME280;5494;51.796;10.952;2022-08-21T06:38:39;99090.91;;;26.22;42.89
18988;BME280;5494;51.796;10.952;2022-08-21T06:41:16;99098.25;;;26.20;43.35
18988;BME280;5494;51.796;10.952;2022-08-21T06:43:50;99097.34;;;26.67;39.72
18988;BME280;5494;51.796;10.952;2022-08-21T06:46:18;99093.03;;;27.26;35.00
18988;BME280;5494;51.796;10.952;2022-08-21T06:48:47;99090.56;;;27.39;34.76
18988;BME280;5494;51.796;10.952;2022-08-21T06:51:17;99093.31;;;27.17;37.62
18988;BME280;5494;51.796;10.952;2022-08-21T06:53:47;99088.28;;;27.51;34.85
18988;BME280;5494;51.796;10.952;2022-08-21T06:56:17;99093.09;;;27.56;33.45
18988;BME280;5494;51.796;10.952;2022-08-21T06:58:46;99083.13;;;27.50;34.21
18988;BME280;5494;51.796;10.952;2022-08-21T07:01:14;99079.69;;;27.26;33.20
18988;BME280;5494;51.796;10.952;2022-08-21T07:03:43;99085.06;;;26.81;34.28
18988;BME280;5494;51.796;10.952;2022-08-21T07:06:12;99085.41;;;26.78;35.29
18988;BME280;5494;51.796;10.952;2022-08-21T07:08:40;99082.69;;;26.63;34.95
18988;BME280;5494;51.796;10.952;2022-08-21T07:11:14;99082.16;;;26.67;34.88
18988;BME280;5494;51.796;10.952;2022-08-21T07:13:48;99070.94;;;26.49;34.84
18988;BME280;5494;51.796;10.952;2022-08-21T07:16:18;99075.69;;;25.37;37.47
18988;BME280;5494;51.796;10.952;2022-08-21T07:18:48;99073.41;;;25.01;38.13
18988;BME280;5494;51.796;10.952;2022-08-21T07:21:17;99073.69;;;25.39;38.23
18988;BME280;5494;51.796;10.952;2022-08-21T07:23:52;99075.53;;;25.94;35.89
18988;BME280;5494;51.796;10.952;2022-08-21T07:26:22;99065.59;;;25.08;37.64
18988;BME280;5494;51.796;10.952;2022-08-21T07:28:53;99065.38;;;25.34;37.97
18988;BME280;5494;51.796;10.952;2022-08-21T07:31:24;99060.72;;;25.44;38.30
18988;BME280;5494;51.796;10.952;2022-08-21T07:33:53;99057.91;;;25.37;38.20
18988;BME280;5494;51.796;10.952;2022-08-21T07:36:22;99065.72;;;25.94;37.89
18988;BME280;5494;51.796;10.952;2022-08-21T07:38:51;99064.66;;;26.88;37.20
18988;BME280;5494;51.796;10.952;2022-08-21T07:41:23;99059.63;;;26.93;37.03
18988;BME280;5494;51.796;10.952;2022-08-21T07:43:54;99048.03;;;27.23;36.08
18988;BME280;5494;51.796;10.952;2022-08-21T07:46:24;99046.69;;;27.86;36.00
18988;BME280;5494;51.796;10.952;2022-08-21T07:48:53;99049.00;;;28.10;35.16
18988;BME280;5494;51.796;10.952;2022-08-21T07:51:26;99036.84;;;28.23;34.78
18988;BME280;5494;51.796;10.952;2022-08-21T07:53:58;99038.16;;;27.38;36.38
18988;BME280;5494;51.796;10.952;2022-08-21T07:56:27;99034.16;;;27.05;37.93
18988;BME280;5494;51.796;10.952;2022-08-21T07:58:58;99037.75;;;26.97;37.88
18988;BME280;5494;51.796;10.952;2022-08-21T08:01:27;99032.31;;;26.68;39.54
18988;BME280;5494;51.796;10.952;2022-08-21T08:03:56;99035.31;;;26.42;38.94
18988;BME280;5494;51.796;10.952;2022-08-21T08:06:24;99033.53;;;26.57;39.56
18988;BME280;5494;51.796;10.952;2022-08-21T08:08:53;99034.69;;;27.23;39.77
18988;BME280;5494;51.796;10.952;2022-08-21T08:11:21;99026.34;;;27.18;38.69
18988;BME280;5494;51.796;10.952;2022-08-21T08:13:51;99027.47;;;27.38;37.83
18988;BME280;5494;51.796;10.952;2022-08-21T08:16:21;99028.69;;;26.61;40.58
18988;BME280;5494;51.796;10.952;2022-08-21T08:18:50;99027.06;;;27.79;38.16
18988;BME280;5494;51.796;10.952;2022-08-21T08:21:18;99014.38;;;28.38;36.19
18988;BME280;5494;51.796;10.952;2022-08-21T08:23:48;99025.09;;;27.73;37.25
18988;BME280;5494;51.796;10.952;2022-08-21T08:26:17;99022.28;;;28.46;37.98
18988;BME280;5494;51.796;10.952;2022-08-21T08:28:45;99010.16;;;29.49;36.06
18988;BME280;5494;51.796;10.952;2022-08-21T08:31:14;99007.81;;;30.21;35.25
18988;BME280;5494;51.796;10.952;2022-08-21T08:33:44;99001.88;;;28.67;37.04
18988;BME280;5494;51.796;10.952;2022-08-21T08:36:15;99001.19;;;28.58;36.36
18988;BME280;5494;51.796;10.952;2022-08-21T08:38:47;99011.91;;;26.52;40.44
18988;BME280;5494;51.796;10.952;2022-08-21T08:41:19;99013.41;;;25.62;43.45
18988;BME280;5494;51.796;10.952;2022-08-21T08:44:02;99008.25;;;26.31;43.13
18988;BME280;5494;51.796;10.952;2022-08-21T08:46:36;99005.66;;;25.36;44.03
18988;BME280;5494;51.796;10.952;2022-08-21T08:49:15;99007.97;;;25.39;44.39
18988;BME280;5494;51.796;10.952;2022-08-21T08:51:55;99017.47;;;24.20;46.71
18988;BME280;5494;51.796;10.952;2022-08-21T08:54:33;99005.59;;;23.90;46.15
18988;BME280;5494;51.796;10.952;2022-08-21T08:57:10;99012.56;;;23.49;49.25
18988;BME280;5494;51.796;10.952;2022-08-21T08:59:47;99015.88;;;23.26;49.37
18988;BME280;5494;51.796;10.952;2022-08-21T09:02:19;99008.16;;;22.81;50.03
18988;BME280;5494;51.796;10.952;2022-08-21T09:04:51;99006.66;;;22.68;50.33
18988;BME280;5494;51.796;10.952;2022-08-21T09:07:35;99007.31;;;22.80;49.78
18988;BME280;5494;51.796;10.952;2022-08-21T09:10:16;99015.16;;;22.54;50.93
18988;BME280;5494;51.796;10.952;2022-08-21T09:12:52;99016.47;;;22.86;49.37
18988;BME280;5494;51.796;10.952;2022-08-21T09:15:32;99016.03;;;22.98;48.87
18988;BME280;5494;51.796;10.952;2022-08-21T09:18:20;99009.81;;;23.07;48.30
18988;BME280;5494;51.796;10.952;2022-08-21T09:21:07;99015.22;;;24.00;46.19
18988;BME280;5494;51.796;10.952;2022-08-21T09:23:51;99004.56;;;25.06;43.64
18988;BME280;5494;51.796;10.952;2022-08-21T09:26:26;99000.25;;;24.97;43.08
18988;BME280;5494;51.796;10.952;2022-08-21T09:28:58;99005.91;;;24.94;43.78
18988;BME280;5494;51.796;10.952;2022-08-21T09:31:32;99009.44;;;25.50;42.67
18988;BME280;5494;51.796;10.952;2022-08-21T09:34:04;99010.09;;;25.60;41.80
18988;BME280;5494;51.796;10.952;2022-08-21T09:36:41;99006.16;;;25.32;43.42
18988;BME280;5494;51.796;10.952;2022-08-21T09:39:13;99003.06;;;24.80;43.71
18988;BME280;5494;51.796;10.952;2022-08-21T09:41:42;99002.41;;;25.02;44.33
18988;BME280;5494;51.796;10.952;2022-08-21T09:44:11;99004.22;;;25.09;44.09
18988;BME280;5494;51.796;10.952;2022-08-21T09:46:50;98997.41;;;25.07;44.62
18988;BME280;5494;51.796;10.952;2022-08-21T09:49:28;98995.56;;;24.83;45.24
18988;BME280;5494;51.796;10.952;2022-08-21T09:52:00;98996.59;;;24.74;45.26
18988;BME280;5494;51.796;10.952;2022-08-21T09:54:35;98999.09;;;25.00;45.01
18988;BME280;5494;51.796;10.952;2022-08-21T09:57:19;98998.72;;;26.05;42.38
18988;BME280;5494;51.796;10.952;2022-08-21T10:00:20;98997.88;;;26.36;41.58
18988;BME280;5494;51.796;10.952;2022-08-21T10:02:53;98993.75;;;26.33;41.96
18988;BME280;5494;51.796;10.952;2022-08-21T10:05:25;98994.75;;;26.92;40.72
18988;BME280;5494;51.796;10.952;2022-08-21T10:07:56;98996.00;;;26.82;40.42
18988;BME280;5494;51.796;10.952;2022-08-21T10:10:29;99001.78;;;26.25;41.78
18988;BME280;5494;51.796;10.952;2022-08-21T10:13:08;98994.00;;;25.37;43.53
18988;BME280;5494;51.796;10.952;2022-08-21T10:15:53;98999.94;;;24.68;46.20
18988;BME280;5494;51.796;10.952;2022-08-21T10:18:34;99001.25;;;24.72;45.20
18988;BME280;5494;51.796;10.952;2022-08-21T10:21:16;98997.88;;;24.21;46.90
18988;BME280;5494;51.796;10.952;2022-08-21T10:24:01;98993.72;;;24.19;47.37
18988;BME280;5494;51.796;10.952;2022-08-21T10:26:46;99001.56;;;24.37;47.67
18988;BME280;5494;51.796;10.952;2022-08-21T10:29:39;98994.41;;;23.71;49.04
18988;BME280;5494;51.796;10.952;2022-08-21T10:32:35;98994.88;;;23.66;49.48
18988;BME280;5494;51.796;10.952;2022-08-21T10:35:14;98991.97;;;23.85;49.40
18988;BME280;5494;51.796;10.952;2022-08-21T10:38:00;98990.50;;;24.07;48.19
18988;BME280;5494;51.796;10.952;2022-08-21T10:40:42;98996.16;;;23.96;48.93
18988;BME280;5494;51.796;10.952;2022-08-21T10:43:26;98995.22;;;24.21;47.98
18988;BME280;5494;51.796;10.952;2022-08-21T10:46:08;98998.06;;;24.20;47.64
18988;BME280;5494;51.796;10.952;2022-08-21T10:48:49;99004.84;;;23.64;48.69
18988;BME280;5494;51.796;10.952;2022-08-21T10:51:28;98994.59;;;23.77;48.20
18988;BME280;5494;51.796;10.952;2022-08-21T10:54:10;98993.13;;;23.83;47.57
18988;BME280;5494;51.796;10.952;2022-08-21T10:57:00;98987.53;;;24.02;47.14
18988;BME280;5494;51.796;10.952;2022-08-21T10:59:38;98983.56;;;24.06;47.26
18988;BME280;5494;51.796;10.952;2022-08-21T11:02:17;98986.94;;;24.24;46.88
18988;BME280;5494;51.796;10.952;2022-08-21T11:04:55;98982.44;;;24.41;47.78
18988;BME280;5494;51.796;10.952;2022-08-21T11:07:31;98984.59;;;24.62;47.59
18988;BME280;5494;51.796;10.952;2022-08-21T11:10:07;98983.63;;;24.87;47.13
18988;BME280;5494;51.796;10.952;2022-08-21T11:12:46;98983.72;;;25.18;46.12
18988;BME280;5494;51.796;10.952;2022-08-21T11:15:31;98986.53;;;25.25;45.67
18988;BME280;5494;51.796;10.952;2022-08-21T11:18:15;98977.72;;;25.24;45.64
18988;BME280;5494;51.796;10.952;2022-08-21T11:20:51;98979.63;;;24.91;46.31
18988;BME280;5494;51.796;10.952;2022-08-21T11:23:29;98985.78;;;25.08;45.89
18988;BME280;5494;51.796;10.952;2022-08-21T11:26:05;98978.25;;;25.20;45.63
18988;BME280;5494;51.796;10.952;2022-08-21T11:28:45;98980.75;;;25.21;45.83
18988;BME280;5494;51.796;10.952;2022-08-21T11:31:34;98978.75;;;25.15;45.84
18988;BME280;5494;51.796;10.952;2022-08-21T11:34:24;98980.78;;;25.60;44.40
18988;BME280;5494;51.796;10.952;2022-08-21T11:37:07;98983.13;;;25.63;44.15
18988;BME280;5494;51.796;10.952;2022-08-21T11:39:52;98973.75;;;25.67;43.38
18988;BME280;5494;51.796;10.952;2022-08-21T11:42:35;98971.63;;;25.94;43.76
18988;BME280;5494;51.796;10.952;2022-08-21T11:45:20;98968.81;;;26.18;42.67
18988;BME280;5494;51.796;10.952;2022-08-21T11:48:05;98968.22;;;26.08;42.79
18988;BME280;5494;51.796;10.952;2022-08-21T11:50:41;98968.91;;;26.02;42.85
18988;BME280;5494;51.796;10.952;2022-08-21T11:53:16;98977.66;;;26.18;42.16
18988;BME280;5494;51.796;10.952;2022-08-21T11:55:51;98968.81;;;26.18;42.44
18988;BME280;5494;51.796;10.952;2022-08-21T11:58:26;98975.25;;;26.32;40.49
18988;BME280;5494;51.796;10.952;2022-08-21T12:01:05;98968.31;;;25.92;42.07
18988;BME280;5494;51.796;10.952;2022-08-21T12:03:40;98966.00;;;25.49;42.94
18988;BME280;5494;51.796;10.952;2022-08-21T12:06:13;98963.66;;;25.07;44.13
18988;BME280;5494;51.796;10.952;2022-08-21T12:09:00;98958.66;;;25.04;43.76
18988;BME280;5494;51.796;10.952;2022-08-21T12:11:29;98961.66;;;24.69;44.91
18988;BME280;5494;51.796;10.952;2022-08-21T12:14:12;98962.59;;;25.25;44.23
18988;BME280;5494;51.796;10.952;2022-08-21T12:16:45;98955.38;;;25.80;43.06
18988;BME280;5494;51.796;10.952;2022-08-21T12:19:30;98957.31;;;25.95;42.18
18988;BME280;5494;51.796;10.952;2022-08-21T12:22:09;98953.59;;;25.73;41.53
18988;BME280;5494;51.796;10.952;2022-08-21T12:24:42;98969.22;;;25.37;42.69
18988;BME280;5494;51.796;10.952;2022-08-21T12:27:26;98960.91;;;25.79;42.39
18988;BME280;5494;51.796;10.952;2022-08-21T12:30:04;98959.50;;;25.91;41.37
18988;BME280;5494;51.796;10.952;2022-08-21T12:32:46;98959.94;;;25.25;42.84
18988;BME280;5494;51.796;10.952;2022-08-21T12:35:27;98944.28;;;25.30;43.03
18988;BME280;5494;51.796;10.952;2022-08-21T12:38:06;98950.19;;;25.87;42.11
18988;BME280;5494;51.796;10.952;2022-08-21T12:40:41;98944.16;;;26.16;41.15
18988;BME280;5494;51.796;10.952;2022-08-21T12:43:16;98943.81;;;26.27;40.36
18988;BME280;5494;51.796;10.952;2022-08-21T12:45:50;98941.78;;;26.21;40.49
18988;BME280;5494;51.796;10.952;2022-08-21T12:48:31;98935.75;;;26.50;40.28
18988;BME280;5494;51.796;10.952;2022-08-21T12:51:12;98932.81;;;26.45;40.51
18988;BME280;5494;51.796;10.952;2022-08-21T12:53:48;98941.13;;;26.27;40.86
18988;BME280;5494;51.796;10.952;2022-08-21T12:56:22;98935.16;;;25.94;41.69
18988;BME280;5494;51.796;10.952;2022-08-21T12:58:55;98936.56;;;25.82;41.64
18988;BME280;5494;51.796;10.952;2022-08-21T13:01:31;98933.75;;;25.83;41.82
18988;BME280;5494;51.796;10.952;2022-08-21T13:04:13;98928.56;;;26.13;40.83
18988;BME280;5494;51.796;10.952;2022-08-21T13:06:46;98934.72;;;26.13;41.61
18988;BME280;5494;51.796;10.952;2022-08-21T13:09:19;98926.16;;;26.18;40.71
18988;BME280;5494;51.796;10.952;2022-08-21T13:11:51;98910.09;;;26.34;41.12
18988;BME280;5494;51.796;10.952;2022-08-21T13:14:28;98918.63;;;26.67;39.63
18988;BME280;5494;51.796;10.952;2022-08-21T13:17:00;98922.19;;;26.14;40.77
18988;BME280;5494;51.796;10.952;2022-08-21T13:19:33;98919.53;;;26.37;41.21
18988;BME280;5494;51.796;10.952;2022-08-21T13:22:03;98917.88;;;26.73;39.89
18988;BME280;5494;51.796;10.952;2022-08-21T13:24:51;98914.16;;;26.97;39.50
18988;BME280;5494;51.796;10.952;2022-08-21T13:27:28;98910.84;;;27.10;38.21
18988;BME280;5494;51.796;10.952;2022-08-21T13:30:08;98917.31;;;26.78;38.92
18988;BME280;5494;51.796;10.952;2022-08-21T13:32:43;98907.72;;;26.91;39.30